createdAt,value
2018-11-03T00:01:56.680Z,5.17
2018-11-03T00:07:00.396Z,6.47
2018-11-03T00:12:04.128Z,5.00
2018-11-03T00:17:07.856Z,4.93
2018-11-03T00:22:11.575Z,6.17
2018-11-03T00:27:15.300Z,6.23
2018-11-03T00:32:19.043Z,5.90
2018-11-03T00:37:22.763Z,6.70
2018-11-03T00:42:26.476Z,5.63
2018-11-03T00:47:30.197Z,6.23
2018-11-03T00:52:33.940Z,5.83
2018-11-03T00:57:38.216Z,6.90
2018-11-03T01:02:43.320Z,5.97
2018-11-03T01:07:47.540Z,5.20
2018-11-03T01:12:51.267Z,5.40
2018-11-03T01:17:54.968Z,5.70
2018-11-03T01:22:58.684Z,6.57
2018-11-03T01:28:02.426Z,5.43
2018-11-03T01:33:06.136Z,5.90
2018-11-03T01:38:09.873Z,7.00
2018-11-03T01:43:13.607Z,7.77
2018-11-03T01:48:17.328Z,5.80
2018-11-03T01:53:21.256Z,4.73
2018-11-03T01:58:24.988Z,6.00
2018-11-03T02:03:28.720Z,6.33
2018-11-03T02:08:32.452Z,5.30
2018-11-03T02:13:36.187Z,5.90
2018-11-03T02:18:39.896Z,7.10
2018-11-03T02:23:43.636Z,7.90
2018-11-03T02:28:47.372Z,7.50
2018-11-03T02:33:51.121Z,8.00
2018-11-03T02:38:54.852Z,6.87
2018-11-03T02:43:58.601Z,7.40
2018-11-03T02:49:02.308Z,5.23
2018-11-03T02:54:06.388Z,5.30
2018-11-03T02:59:10.692Z,7.10
2018-11-03T03:04:14.400Z,5.87
2018-11-03T03:09:18.204Z,8.00
2018-11-03T03:14:21.946Z,6.67
2018-11-03T03:19:25.668Z,5.27
2018-11-03T03:24:29.391Z,7.60
2018-11-03T03:29:33.193Z,8.63
2018-11-03T03:34:36.876Z,7.57
2018-11-03T03:39:40.604Z,7.13
2018-11-03T03:44:44.324Z,7.67
2018-11-03T03:49:48.068Z,7.13
2018-11-03T03:54:51.773Z,7.70
2018-11-03T03:59:55.496Z,6.23
2018-11-03T04:04:59.403Z,7.33
2018-11-03T04:10:03.113Z,7.67
2018-11-03T04:15:07.156Z,7.13
2018-11-03T04:20:10.887Z,6.63
2018-11-03T04:25:14.609Z,7.33
2018-11-03T04:30:18.331Z,7.73
2018-11-03T04:35:22.065Z,6.60
2018-11-03T04:40:25.779Z,7.50
2018-11-03T04:45:29.625Z,8.13
2018-11-03T04:50:33.208Z,7.33
2018-11-03T04:55:36.929Z,9.20
2018-11-03T05:00:40.660Z,9.47
2018-11-03T05:05:44.384Z,9.30
2018-11-03T05:10:48.114Z,5.10
2018-11-03T05:15:51.844Z,6.13
2018-11-03T05:20:55.566Z,8.70
2018-11-03T05:25:59.328Z,7.90
2018-11-03T05:31:03.066Z,7.63
2018-11-03T05:36:06.752Z,8.07
2018-11-03T05:41:10.496Z,8.20
2018-11-03T05:46:14.253Z,7.27
2018-11-03T05:51:17.932Z,5.20
2018-11-03T05:56:21.769Z,5.00
2018-11-03T06:01:25.600Z,7.70
2018-11-03T06:06:29.308Z,9.03
2018-11-03T06:11:33.009Z,7.60
2018-11-03T06:16:36.725Z,8.60
2018-11-03T06:21:40.445Z,6.50
2018-11-03T06:26:44.172Z,6.33
2018-11-03T06:31:47.892Z,6.67
2018-11-03T06:36:51.595Z,7.60
2018-11-03T06:41:55.309Z,9.40
2018-11-03T06:46:59.015Z,8.30
2018-11-03T06:52:02.813Z,8.60
2018-11-03T06:57:06.507Z,7.03
2018-11-03T07:02:10.278Z,7.63
2018-11-03T07:07:13.924Z,6.60
2018-11-03T07:12:17.776Z,8.60
2018-11-03T07:17:21.376Z,8.17
2018-11-03T07:22:25.220Z,6.90
2018-11-03T07:27:28.968Z,7.77
2018-11-03T07:32:32.703Z,8.03
2018-11-03T07:37:36.483Z,10.63
2018-11-03T07:42:40.712Z,8.60
2018-11-03T07:47:44.608Z,6.67
2018-11-03T07:52:48.336Z,8.13
2018-11-03T07:57:52.151Z,6.90
2018-11-03T08:02:55.880Z,8.73
2018-11-03T08:07:59.596Z,5.53
2018-11-03T08:13:03.316Z,5.60
2018-11-03T08:18:07.041Z,8.10
2018-11-03T08:23:10.772Z,9.03
2018-11-03T08:28:14.604Z,6.70
2018-11-03T08:33:18.322Z,12.77
2018-11-03T08:38:22.032Z,10.33
2018-11-03T08:43:25.768Z,11.50
2018-11-03T08:48:29.628Z,9.40
2018-11-03T08:53:33.328Z,7.47
2018-11-03T08:58:37.165Z,7.90
2018-11-03T09:03:40.863Z,10.00
2018-11-03T09:08:44.681Z,9.23
2018-11-03T09:13:48.437Z,11.27
2018-11-03T09:18:52.147Z,7.50
2018-11-03T09:23:55.871Z,8.00
2018-11-03T09:28:59.610Z,9.23
2018-11-03T09:34:03.339Z,7.33
2018-11-03T09:39:08.927Z,5.80
2018-11-03T09:44:12.614Z,6.60
2018-11-03T09:49:16.337Z,9.40
2018-11-03T09:54:20.084Z,8.27
2018-11-03T09:59:23.772Z,6.07
2018-11-03T10:04:27.492Z,11.07
2018-11-03T10:09:31.232Z,6.30
2018-11-03T10:14:34.935Z,5.67
2018-11-03T10:19:38.636Z,8.00
2018-11-03T10:24:42.344Z,6.13
2018-11-03T10:29:46.057Z,8.90
2018-11-03T10:34:49.785Z,8.30
2018-11-03T10:39:53.508Z,5.50
2018-11-03T10:44:57.256Z,5.20
2018-11-03T10:50:00.991Z,4.77
2018-11-03T10:55:05.382Z,5.57
2018-11-03T11:00:17.156Z,4.50
2018-11-03T11:05:26.396Z,4.00
2018-11-03T11:10:35.684Z,2.47
2018-11-03T11:15:39.481Z,2.73
2018-11-03T11:20:43.272Z,1.70
2018-11-03T11:25:47.007Z,2.60
2018-11-03T11:30:50.732Z,1.87
2018-11-03T11:35:54.464Z,1.90
2018-11-03T11:40:58.160Z,2.50
2018-11-03T11:46:01.881Z,2.13
2018-11-03T11:51:05.792Z,1.90
2018-11-03T11:56:09.604Z,2.17
2018-11-03T12:01:13.316Z,1.77
2018-11-03T12:06:17.141Z,1.90
2018-11-03T12:11:20.878Z,1.93
2018-11-03T12:16:24.570Z,1.17
2018-11-03T12:21:28.540Z,1.93
2018-11-03T12:26:32.272Z,1.40
2018-11-03T12:31:35.979Z,1.73
2018-11-03T12:36:39.712Z,1.50
2018-11-03T12:41:43.426Z,1.30
2018-11-03T12:46:47.149Z,1.23
2018-11-03T12:51:50.877Z,1.40
2018-11-03T12:56:54.578Z,1.33
2018-11-03T13:01:58.320Z,1.50
2018-11-03T13:07:02.044Z,1.20
2018-11-03T13:12:05.821Z,1.27
2018-11-03T13:17:09.504Z,1.40
2018-11-03T13:22:13.208Z,1.30
2018-11-03T13:27:16.944Z,1.43
2018-11-03T13:32:20.661Z,1.50
2018-11-03T13:37:24.405Z,1.30
2018-11-03T13:42:28.095Z,1.13
2018-11-03T13:47:31.817Z,1.40
2018-11-03T13:52:35.512Z,1.10
2018-11-03T13:57:39.643Z,1.53
2018-11-03T14:02:44.192Z,1.13
2018-11-03T14:07:47.920Z,1.47
2018-11-03T14:12:51.619Z,1.20
2018-11-03T14:17:55.356Z,2.10
2018-11-03T14:22:59.091Z,1.87
2018-11-03T14:28:02.808Z,0.90
2018-11-03T14:33:06.720Z,1.10
2018-11-03T14:38:10.444Z,1.40
2018-11-03T14:43:14.136Z,1.40
2018-11-03T14:48:17.856Z,1.33
2018-11-03T14:53:21.635Z,1.27
2018-11-03T14:58:25.407Z,1.30
2018-11-03T15:03:29.118Z,1.60
2018-11-03T15:08:32.941Z,1.13
2018-11-03T15:13:36.635Z,1.33
2018-11-03T15:18:40.308Z,1.10
2018-11-03T15:23:44.072Z,1.20
2018-11-03T15:28:47.866Z,1.20
2018-11-03T15:33:51.595Z,1.07
2018-11-03T15:38:55.336Z,1.10
2018-11-03T15:43:59.105Z,1.43
2018-11-03T15:49:02.839Z,1.33
2018-11-03T15:54:06.648Z,1.47
2018-11-03T15:59:10.351Z,1.73
2018-11-03T16:04:14.065Z,1.20
2018-11-03T16:09:17.820Z,1.80
2018-11-03T16:14:21.560Z,1.10
2018-11-03T16:19:25.354Z,1.93
2018-11-03T16:24:29.029Z,1.90
2018-11-03T16:29:32.775Z,2.30
2018-11-03T16:34:36.514Z,1.50
2018-11-03T16:39:40.227Z,1.10
2018-11-03T16:44:44.193Z,2.10
2018-11-03T16:49:47.986Z,2.60
2018-11-03T16:54:51.815Z,1.50
2018-11-03T16:59:56.367Z,2.30
2018-11-03T17:05:00.144Z,2.80
2018-11-03T17:10:05.138Z,3.17
2018-11-03T17:15:08.811Z,2.10
2018-11-03T17:20:12.588Z,2.17
2018-11-03T17:25:16.446Z,3.13
2018-11-03T17:30:20.200Z,2.20
2018-11-03T17:35:24.115Z,2.27
2018-11-03T17:40:27.860Z,2.73
2018-11-03T17:45:31.664Z,2.90
2018-11-03T17:50:35.398Z,2.90
2018-11-03T17:55:39.215Z,3.03
2018-11-03T18:00:43.021Z,2.83
2018-11-03T18:05:46.792Z,3.00
2018-11-03T18:10:50.580Z,3.17
2018-11-03T18:15:54.412Z,2.80
2018-11-03T18:20:58.252Z,3.00
2018-11-03T18:26:02.004Z,2.63
2018-11-03T18:31:05.773Z,3.17
2018-11-03T18:36:09.440Z,3.03
2018-11-03T18:41:13.159Z,3.70
2018-11-03T18:46:16.931Z,2.93
2018-11-03T18:51:20.641Z,4.13
2018-11-03T18:56:24.361Z,5.10
2018-11-03T19:01:28.075Z,4.27
2018-11-03T19:06:31.793Z,4.43
2018-11-03T19:11:35.531Z,5.70
2018-11-03T19:16:39.262Z,4.60
2018-11-03T19:21:43.080Z,5.13
2018-11-03T19:26:46.812Z,4.50
2018-11-03T19:31:50.660Z,5.80
2018-11-03T19:36:54.396Z,6.73
2018-11-03T19:41:58.128Z,6.00
2018-11-03T19:47:01.854Z,6.47
2018-11-03T19:52:05.756Z,5.53
2018-11-03T19:57:09.532Z,5.70
2018-11-03T20:02:13.228Z,5.40
2018-11-03T20:07:16.940Z,4.83
2018-11-03T20:12:20.725Z,6.27
2018-11-03T20:17:24.443Z,6.53
2018-11-03T20:22:28.157Z,5.97
2018-11-03T20:27:31.855Z,4.60
2018-11-03T20:32:35.583Z,6.60
2018-11-03T20:37:39.325Z,6.93
2018-11-03T20:42:43.028Z,6.43
2018-11-03T20:47:46.724Z,6.40
2018-11-03T20:52:50.471Z,7.77
2018-11-03T20:57:54.288Z,6.93
2018-11-03T21:02:58.036Z,7.93
2018-11-03T21:08:01.795Z,7.90
2018-11-03T21:13:05.576Z,8.60
2018-11-03T21:18:09.406Z,6.70
2018-11-03T21:23:13.239Z,8.67
2018-11-03T21:28:17.053Z,6.97
2018-11-03T21:33:20.958Z,7.80
2018-11-03T21:38:24.616Z,9.30
2018-11-03T21:43:28.396Z,8.70
2018-11-03T21:48:32.116Z,6.93
2018-11-03T21:53:35.835Z,8.80
2018-11-03T21:58:39.568Z,8.33
2018-11-03T22:03:43.416Z,9.33
2018-11-03T22:08:47.132Z,10.43
2018-11-03T22:13:50.878Z,7.53
2018-11-03T22:18:54.596Z,8.70
2018-11-03T22:23:58.310Z,10.87
2018-11-03T22:29:02.117Z,9.70
2018-11-03T22:34:06.265Z,9.73
2018-11-03T22:39:10.068Z,9.80
2018-11-03T22:44:13.781Z,10.40
2018-11-03T22:49:17.601Z,8.60
2018-11-03T22:54:21.313Z,8.63
2018-11-03T22:59:25.088Z,9.27
2018-11-03T23:04:28.752Z,8.50
2018-11-03T23:09:32.449Z,8.73
2018-11-03T23:14:36.441Z,9.17
2018-11-03T23:19:40.392Z,8.90
2018-11-03T23:24:44.100Z,7.53
2018-11-03T23:29:47.914Z,10.97
2018-11-03T23:34:51.536Z,8.70
2018-11-03T23:39:55.260Z,8.97
2018-11-03T23:44:59.070Z,8.40
2018-11-03T23:50:02.699Z,7.40
2018-11-03T23:55:06.487Z,10.20
